Friday, October 20, 2017, 9:22 PM EDT
Back to Local

KPNE, N.e. Philadelphia Airport

Location: Philadelphia, PA, United States Lat: 40.083
Local Time: 9:22 PM EDT ( 1:22 GMT) Lon: -75.017
Time Zone: US/Eastern Elev: 121 ft

Show me the last for .
Show Decoded

2017-10-20 20:54 METAR KPNE 210054Z 28006KT 10SM CLR 16/05 A3021 RMK AO2 SLP229 T01560050 =
2017-10-20 19:54 METAR KPNE 202354Z 26004KT 10SM CLR 17/04 A3020 RMK AO2 SLP226 T01720044 10244
                 20172 53014 =
2017-10-20 18:54 METAR KPNE 202254Z 31004KT 10SM CLR 20/03 A3018 RMK AO2 SLP219 T02000028 =
2017-10-20 17:54 METAR KPNE 202154Z 31007KT 10SM CLR 22/02 A3016 RMK AO2 SLP213 T02170022 =
2017-10-20 16:54 METAR KPNE 202054Z 29008KT 10SM CLR 23/02 A3016 RMK AO2 SLP212 T02330017 56005 =
2017-10-20 15:54 METAR KPNE 201954Z 28011G17KT 10SM CLR 24/02 A3016 RMK AO2 SLP212 T02390022 =
2017-10-20 14:54 METAR KPNE 201854Z 30006KT 10SM CLR 24/02 A3016 RMK AO2 SLP213 T02390017 =
2017-10-20 13:54 METAR KPNE 201754Z 31012KT 10SM CLR 23/02 A3018 RMK AO2 SLP218 T02330017 10233
                 20139 58016 =
2017-10-20 12:54 METAR KPNE 201654Z 33007KT 290V360 10SM CLR 23/03 A3020 RMK AO2 SLP225 T02280028
                 =
2017-10-20 11:54 METAR KPNE 201554Z 35009KT 10SM CLR 22/03 A3021 RMK AO2 SLP230 T02170028 =
2017-10-20 10:54 METAR KPNE 201454Z 34009KT 10SM CLR 21/04 A3022 RMK AO2 SLP233 T02060044 50008 =
2017-10-20 09:54 METAR KPNE 201354Z 32008KT 10SM CLR 19/09 A3023 RMK AO2 SLP236 T01940089 =
2017-10-20 08:54 METAR KPNE 201254Z 31003KT 10SM CLR 17/09 A3022 RMK AO2 SLP232 T01670094 =
2017-10-20 07:54 METAR KPNE 201154Z 29004KT 10SM CLR 14/08 A3020 RMK AO2 SLP225 T01390083 10144
                 20111 53019 =
2017-10-20 06:54 METAR KPNE 201054Z 29005KT 10SM CLR 14/08 A3017 RMK AO2 SLP217 T01390078 =
2017-10-20 05:54 METAR KPNE 200954Z AUTO 29005KT 10SM CLR 13/08 A3015 RMK AO2 SLP211 T01330078 =
2017-10-20 04:54 METAR KPNE 200854Z AUTO 28005KT 10SM CLR 12/08 A3014 RMK AO2 SLP206 T01170083
                 53001 =
2017-10-20 03:54 METAR KPNE 200754Z AUTO 26003KT 10SM CLR 11/08 A3014 RMK AO2 SLP204 T01110083 =
2017-10-20 02:54 METAR KPNE 200654Z AUTO 00000KT 10SM CLR 12/09 A3013 RMK AO2 SLP202 T01220094 =
2017-10-20 01:54 METAR KPNE 200554Z AUTO 22003KT 10SM CLR 12/09 A3014 RMK AO2 SLP205 T01220089
                 10183 20122 50000 =
2017-10-20 00:54 METAR KPNE 200454Z AUTO 24004KT 10SM CLR 14/09 A3014 RMK AO2 SLP206 T01440094
                 402280078 =
2017-10-19 23:54 METAR KPNE 200354Z AUTO 24004KT 10SM CLR 14/09 A3014 RMK AO2 SLP206 T01440094 =
2017-10-19 22:54 METAR KPNE 200254Z 27006KT 10SM CLR 14/09 A3014 RMK AO2 SLP205 T01440089 53002 =
2017-10-19 21:54 METAR KPNE 200154Z 24007KT 10SM CLR 17/09 A3014 RMK AO2 SLP205 T01670089 =

Support USWX by starting your Amazon purchase here.